RNTRENTON MUNI
METARs for airports near RNT, sorted by distance:
N 0 nm 32' KRNT 042153Z 33010KT 8SM CLR 27/15 A3003
NW 4 nm 21' KBFI 042153Z 33009G14KT 300V020 10SM CLR 27/13 A3004
SW 4 nm 432' KSEA 042153Z 33013G18KT 10SM FEW040 27/13 A3006
SW 20 nm 294' KTIW 042153Z 03011G18KT 10SM SCT029 25/13 A3005
W 22 nm 444' KPWT 042156Z 07006KT 10SM CLR 27/16 A3006
S 23 nm 537' KPLU 042215Z VRB03G10KT 10SM CLR 28/14 A3005
SW 23 nm 322' KTCM 042158Z 04007G15KT 10SM CLR 27/13 A3005
N 24 nm 607' KPAE 042153Z 35006KT 10SM CLR 24/16 A3007
SW 28 nm 301' KGRF 042158Z 33006KT 10SM CLR 28/18 A3004
N 40 nm 141' KAWO 042156Z 31008KT 10SM 27/18 A3004
SW 40 nm 272' KSHN 042153Z 20006KT 10SM FEW055 28/15 A3002
SW 42 nm 207' KOLM 042154Z VRB05KT 10SM CLR 28/14 A3004
N 54 nm 47' KNUW 042156Z 28006KT 10SM FEW040 18/12 A3010
SW 58 nm 177' KCLS 042215Z VRB06G13KT 6SM HZ CLR 29/15 A3003
N 59 nm 145' KBVS 042215Z 29010KT 8SM CLR 26/17 A3004
NW 62 nm 13' KNOW 042210Z 30011KT 10SM CLR A3007
NW 64 nm 291' KCLM 042153Z 35006KT 10SM CLR 21/13 A3008
NW 69 nm 112' KFHR 042153Z 22007KT 10SM CLR 25/15 A3006
E 74 nm 1763' KELN 042153Z 12005KT 10SM CLR 31/07 A3001
SW 76 nm 17' KHQM 042153Z 26013KT 10SM CLR 20/16 A3009
N 78 nm 34' KORS 042215Z 31004KT 8SM CLR 22/16 A3005
N 79 nm 171' KBLI 042153Z VRB05KT 10SM CLR 26/16 A3005
E 81 nm 1248' KEAT 042155Z 14006KT 10SM CLR 32/07 A2997
NW 84 nm 64' CYYJ 042200Z 09006KT 080V160 30SM FEW035 25/14 A3005
S 87 nm 20' KKLS 042156Z 28007KT CLR 29/16 A3001
SE 88 nm 1098' KYKM 042153Z VRB03KT 10SM CLR 32/07 A2998
W 98 nm 193' KUIL 042153Z 33008KT 10SM CLR 22/14 A3009
TAFs for airports near RNT, sorted by distance:
NW 4 nm 21' KBFI KBFI 041729Z 0418/0518 VRB04KT P6SM SCT015
  FM041900 34008KT P6SM SKC
  FM051200 VRB04KT P6SM SCT015
SW 4 nm 432' KSEA KSEA 042101Z 0421/0524 35008KT P6SM FEW040
  FM051200 VRB04KT P6SM SCT015
  FM051700 23004KT P6SM BKN250
W 22 nm 444' KPWT TAF KPWT 041729Z 0418/0518 04006KT P6SM SKC
  FM051300 20003KT P6SM OVC015
SW 23 nm 322' KTCM TAF KTCM 042100Z 0421/0603 35012KT 9999 SKC QNH3010INS
  BECMG 0506/0507 VRB06KT 9999 FEW100 SCT150 QNH3003INS
  BECMG 0520/0521 25012KT 9999 SKC QNH2999INS TX28/0521Z TN15/0512Z
N 24 nm 607' KPAE KPAE 041729Z 0418/0518 35006KT P6SM OVC010
  FM042000 34005KT P6SM SKC
  FM051300 23004KT P6SM OVC015
SW 28 nm 301' KGRF TAF KGRF 042100Z 0421/0603 35006KT 9999 SKC QNH3010INS
  BECMG 0512/0513 27006KT 9999 SCT020 BKN040 QNH3003INS
  BECMG 0600/0601 25011KT 9999 SKC QNH2999INS TX26/0521Z TN17/0512Z
SW 42 nm 207' KOLM KOLM 041729Z 0418/0518 01007KT P6SM FEW020
  FM050400 VRB03KT P6SM SKC
  FM051100 20004KT P6SM BKN004
N 54 nm 47' KNUW TAF COR KNUW 0415/0515 24006KT 9999 FEW007 BKN020 BKN250 QNH3011INS
  TEMPO 0415/0419 VRB06KT SCT009 OVC012
  FM041900 28008KT 9999 FEW010 SCT050 SCT250 QNH3003INS
  FM050800 22006KT 6000 BR BCFG FEW006 SCT030 SCT250 QNH2996INS
  TEMPO 0509/0515 VRB06KT 2400 BR BCFG BKN005 T23/0423Z T10/0513Z COR 1501 FS30004
NW 64 nm 291' KCLM KCLM 041729Z 0418/0518 VRB04KT P6SM SKC
  FM041900 30010KT P6SM SKC
  FM050200 30010G16KT P6SM SKC
  FM051200 28006KT P6SM OVC015
SW 76 nm 17' KHQM KHQM 041729Z 0418/0518 20003KT 3SM BR BKN004
  FM041900 25012KT P6SM SCT025
  FM050600 25005KT 2SM BR OVC003
N 79 nm 171' KBLI KBLI 041729Z 0418/0518 20006KT P6SM SCT015
  FM042000 19010KT P6SM SKC
  FM051200 18010G16KT P6SM SCT015
E 81 nm 1248' KEAT TAF KEAT 041720Z 0418/0518 34008KT P6SM SKC
  FM041900 14004KT P6SM SKC
  FM050600 33007KT P6SM SKC
SE 88 nm 1098' KYKM TAF KYKM 041732Z 0418/0518 VRB04KT P6SM SKC
  FM050200 32006KT P6SM SKC
  FM051700 VRB04KT P6SM SKC

Shortcut to this page: http://wxbay.com.

Data may contain errors.